sim
Sign-in with your pilot id or email,
or register
Callsign
Passwort

Schedule Details

Flight Number: DLH1895 (1)
Departure: Turin Caselle Airport (LIMF) at 07:55
Arrival: Munich Airport (EDDM) at 09:05
Route: Lufthansa Passenger Schedule. Enter filed route here before submitting Pirep.

Weather Information
Getting current METAR information for LIMF 240150Z VRB01KT 9999 SCT080 16/14 Q1011
Getting current METAR information for EDDM 240150Z 22002KT CAVOK 10/10 Q1009 NOSIG

Schedule Frequency

Route Map